Randolph, Minnesota
Current Conditions -  °F | °C
As of 4:14 PM on Monday 24 Nov 2014 (Local Time) from KSYN Reporting Station
Light Snow Light Snow  
Wind Chill:   Ceiling: 2100
Heat Index: 20°   Visibility: 7mi
Dew Point: 14°   Wind: 21mph
Humidity: 77%   Direction: 290°WNW
Pressure: 29.63"   Gusts: 28mph
Location:  44.53°N, 93.02°W
Report Text: KSYN 242214Z AUTO 29018G24KT 7SM -SN OVC021 M07/M10 A2963 RMK AO2 T10671101
Loading
Personal Weather Stations






























Interactive Weather Map New forecast layout! Learn more

10-Day Weather Forecast

Advertisements
Track Severe Weather on mobile